createdAt,value
2023-01-30T01:55:58.451Z,-2.10
2023-01-30T01:59:19.722Z,-2.01
2023-01-30T02:02:26.329Z,-1.83
2023-01-30T02:03:33.372Z,-1.96
2023-01-30T02:04:40.883Z,-1.91
2023-01-30T02:05:47.761Z,-1.90
2023-01-30T02:06:56.412Z,-1.88
2023-01-30T02:08:07.472Z,-1.87
2023-01-30T02:09:13.188Z,-1.89
2023-01-30T02:10:20.206Z,-1.87
2023-01-30T02:11:31.737Z,-1.86
2023-01-30T02:12:35.719Z,-1.85
2023-01-30T02:13:39.787Z,-1.84
2023-01-30T02:14:44.861Z,-1.83
2023-01-30T02:15:51.851Z,-1.81
2023-01-30T02:16:57.248Z,-1.81
2023-01-30T02:18:03.528Z,-1.82
2023-01-30T02:19:10.571Z,-1.82
2023-01-30T02:20:35.583Z,-1.80
2023-01-30T02:21:42.615Z,-1.81
2023-01-30T02:23:05.641Z,-1.80
2023-01-30T02:24:24.573Z,-1.81
2023-01-30T02:25:31.706Z,-1.81
2023-01-30T02:27:13.471Z,-1.79
2023-01-30T02:28:38.367Z,-1.80
2023-01-30T02:30:07.862Z,-1.80
2023-01-30T02:31:29.502Z,-1.81
2023-01-30T02:32:48.291Z,-1.84
2023-01-30T02:34:13.272Z,-1.84
2023-01-30T02:35:47.386Z,-1.85
2023-01-30T02:37:19.952Z,-1.85
2023-01-30T02:38:34.050Z,-1.85
2023-01-30T02:39:42.116Z,-1.89
2023-01-30T02:41:10.168Z,-1.88
2023-01-30T02:42:26.061Z,-1.89
2023-01-30T02:43:39.399Z,-1.89
2023-01-30T02:44:50.440Z,-1.89
2023-01-30T02:45:59.899Z,-1.90
2023-01-30T02:47:16.046Z,-1.89
2023-01-30T02:48:29.001Z,-1.88
2023-01-30T02:49:41.648Z,-1.85
2023-01-30T02:50:48.672Z,-1.85
2023-01-30T02:51:54.926Z,-1.85
2023-01-30T02:52:59.032Z,-1.85
2023-01-30T02:54:05.855Z,-1.85
2023-01-30T02:55:23.176Z,-1.85
2023-01-30T02:56:29.176Z,-1.84
2023-01-30T02:57:33.154Z,-1.82
2023-01-30T02:58:44.424Z,-1.84
2023-01-30T02:59:51.483Z,-1.85
2023-01-30T03:01:04.230Z,-1.83
2023-01-30T03:02:17.045Z,-1.84
2023-01-30T03:03:26.885Z,-1.84
2023-01-30T03:04:50.428Z,-1.84
2023-01-30T03:06:12.638Z,-1.81
2023-01-30T03:07:28.549Z,-1.81
2023-01-30T03:08:51.864Z,-1.82
2023-01-30T03:10:03.031Z,-1.82
2023-01-30T03:11:09.922Z,-1.81
2023-01-30T03:12:19.650Z,-1.85
2023-01-30T03:13:35.555Z,-1.84
2023-01-30T03:14:54.900Z,-1.84
2023-01-30T03:16:01.942Z,-1.84
2023-01-30T03:17:09.199Z,-1.85
2023-01-30T03:18:13.869Z,-1.85
2023-01-30T03:19:19.732Z,-1.85
2023-01-30T03:20:26.633Z,-1.84
2023-01-30T03:21:33.306Z,-1.84
2023-01-30T03:22:37.308Z,-1.84
2023-01-30T03:23:41.168Z,-1.83
2023-01-30T03:24:45.206Z,-1.82
2023-01-30T03:25:49.838Z,-1.82
2023-01-30T03:27:13.097Z,-1.82
2023-01-30T03:28:20.846Z,-1.82
2023-01-30T03:29:25.003Z,-1.82
2023-01-30T03:30:29.067Z,-1.83
2023-01-30T03:31:35.134Z,-1.83
2023-01-30T03:32:39.064Z,-1.82
2023-01-30T03:33:43.492Z,-1.82
2023-01-30T03:34:47.438Z,-1.82
2023-01-30T03:35:52.535Z,-1.80
2023-01-30T03:36:58.467Z,-1.78
2023-01-30T03:38:04.743Z,-1.77
2023-01-30T03:39:08.764Z,-1.79
2023-01-30T03:40:16.185Z,-1.77
2023-01-30T03:41:21.670Z,-1.74
2023-01-30T03:42:25.675Z,-1.76
2023-01-30T03:43:31.202Z,-1.76
2023-01-30T03:44:35.113Z,-1.77
2023-01-30T03:45:38.996Z,-1.75
2023-01-30T03:46:42.960Z,-1.75
2023-01-30T03:47:46.873Z,-1.73
2023-01-30T03:48:50.805Z,-1.72
2023-01-30T03:49:54.704Z,-1.73
2023-01-30T03:50:58.603Z,-1.71
2023-01-30T03:52:02.627Z,-1.70
2023-01-30T03:53:06.553Z,-1.70
2023-01-30T03:54:10.388Z,-1.70
2023-01-30T03:55:16.663Z,-1.70
2023-01-30T03:56:20.013Z,-1.69
2023-01-30T03:57:27.035Z,-1.68
2023-01-30T03:58:32.648Z,-1.70
2023-01-30T03:59:36.637Z,-1.70
2023-01-30T04:00:40.662Z,-1.68
2023-01-30T04:03:43.889Z,-1.69
2023-01-30T04:04:47.960Z,-1.70
2023-01-30T04:05:52.089Z,-1.69
2023-01-30T04:06:56.217Z,-1.69
2023-01-30T04:08:02.702Z,-1.71
2023-01-30T04:09:06.824Z,-1.71
2023-01-30T04:10:11.528Z,-1.70
2023-01-30T04:11:15.564Z,-1.71
2023-01-30T04:12:19.510Z,-1.71
2023-01-30T04:13:23.613Z,-1.71
2023-01-30T04:14:29.003Z,-1.74
2023-01-30T04:15:33.211Z,-1.75
2023-01-30T04:16:37.354Z,-1.75
2023-01-30T04:17:43.096Z,-1.72
2023-01-30T04:18:48.689Z,-1.72
2023-01-30T04:19:52.662Z,-1.73
2023-01-30T04:20:56.606Z,-1.72
2023-01-30T04:22:00.600Z,-1.71
2023-01-30T04:23:04.573Z,-1.71
2023-01-30T04:24:08.726Z,-1.72
2023-01-30T04:25:24.062Z,-1.94
2023-01-30T04:26:18.578Z,-1.74
2023-01-30T04:27:24.249Z,-1.76
2023-01-30T04:28:28.542Z,-1.78
2023-01-30T04:29:34.668Z,-1.78
2023-01-30T04:30:38.423Z,-1.78
2023-01-30T04:31:45.534Z,-1.76
2023-01-30T04:32:51.073Z,-1.76
2023-01-30T04:33:54.997Z,-1.78
2023-01-30T04:34:58.990Z,-1.74
2023-01-30T04:36:04.848Z,-1.76
2023-01-30T04:37:08.769Z,-1.74
2023-01-30T04:38:12.750Z,-1.73
2023-01-30T04:39:20.484Z,-1.74
2023-01-30T04:40:24.033Z,-1.75
2023-01-30T04:41:27.949Z,-1.77
2023-01-30T04:42:31.870Z,-1.79
2023-01-30T04:43:35.912Z,-1.78
2023-01-30T04:44:39.927Z,-1.78
2023-01-30T04:45:48.047Z,-1.79
2023-01-30T04:46:52.142Z,-1.76
2023-01-30T04:47:56.000Z,-1.76
2023-01-30T04:49:01.425Z,-1.76
2023-01-30T04:50:05.852Z,-1.74
2023-01-30T04:51:09.686Z,-1.74
2023-01-30T04:52:13.532Z,-1.74
2023-01-30T04:53:18.393Z,-1.74
2023-01-30T04:54:23.808Z,-1.76
2023-01-30T04:55:27.719Z,-1.76
2023-01-30T04:56:31.800Z,-1.78
2023-01-30T04:57:35.726Z,-1.76
2023-01-30T04:58:41.235Z,-1.80
2023-01-30T04:59:45.136Z,-1.79
2023-01-30T05:00:49.898Z,-1.76
2023-01-30T05:01:54.841Z,-1.78
2023-01-30T05:03:00.328Z,-1.76
2023-01-30T05:04:05.775Z,-1.74
2023-01-30T05:05:10.105Z,-1.74
2023-01-30T05:06:14.076Z,-1.75
2023-01-30T05:07:17.993Z,-1.77
2023-01-30T05:08:21.916Z,-1.77
2023-01-30T05:09:26.850Z,-1.79
2023-01-30T05:10:30.831Z,-1.79
2023-01-30T05:11:35.195Z,-1.79
2023-01-30T05:12:39.098Z,-1.80
2023-01-30T05:13:45.511Z,-1.80
2023-01-30T05:14:52.059Z,-1.79
2023-01-30T05:15:55.104Z,-1.79
2023-01-30T05:17:01.873Z,-1.83
2023-01-30T05:18:07.816Z,-1.80
2023-01-30T05:19:13.804Z,-1.80
2023-01-30T05:20:18.063Z,-1.80
2023-01-30T05:21:26.018Z,-1.80
2023-01-30T05:22:30.048Z,-1.84
2023-01-30T05:23:33.955Z,-1.83
2023-01-30T05:24:37.903Z,-1.81
2023-01-30T05:25:44.596Z,-1.82
2023-01-30T05:26:50.218Z,-1.78
2023-01-30T05:27:54.208Z,-1.76
2023-01-30T05:28:58.755Z,-1.76
2023-01-30T05:30:02.712Z,-1.76
2023-01-30T05:31:18.819Z,-1.76
2023-01-30T05:32:21.475Z,-1.74
2023-01-30T05:33:25.334Z,-1.77
2023-01-30T05:34:29.420Z,-1.75
2023-01-30T05:35:34.891Z,-1.73
2023-01-30T05:36:39.117Z,-1.72
2023-01-30T05:37:44.689Z,-1.72
2023-01-30T05:38:48.663Z,-1.73
2023-01-30T05:39:52.718Z,-1.74
2023-01-30T05:41:08.796Z,-1.91
2023-01-30T05:42:12.742Z,-1.74
2023-01-30T05:43:16.629Z,-1.74
2023-01-30T05:44:24.764Z,-1.74
2023-01-30T05:45:28.813Z,-1.76
2023-01-30T05:46:35.656Z,-1.76
2023-01-30T05:47:41.339Z,-1.76
2023-01-30T05:48:45.528Z,-1.79
2023-01-30T05:49:49.495Z,-1.79
2023-01-30T05:50:54.886Z,-1.73
2023-01-30T05:51:59.098Z,-1.73
2023-01-30T05:53:03.120Z,-1.73
2023-01-30T05:54:07.369Z,-1.72
2023-01-30T05:55:14.140Z,-1.74
2023-01-30T09:57:27.950Z,-0.25
2023-01-30T09:58:43.453Z,-0.24
2023-01-30T10:00:06.864Z,-0.22
2023-01-30T10:01:15.427Z,-0.21
2023-01-30T10:02:31.272Z,-0.23
2023-01-30T10:03:43.134Z,-0.18
2023-01-30T10:05:03.761Z,-0.18
2023-01-30T10:06:07.847Z,-0.23
2023-01-30T10:07:16.016Z,-0.21
2023-01-30T10:08:39.597Z,-0.21
2023-01-30T10:10:02.865Z,-0.27
2023-01-30T10:12:30.435Z,-0.28
2023-01-30T10:12:40.662Z,-0.28
2023-01-30T10:14:00.903Z,-0.33
2023-01-30T10:15:29.158Z,-0.34
2023-01-30T10:16:45.144Z,-0.33
2023-01-30T10:17:52.130Z,-0.36
2023-01-30T10:19:08.337Z,-0.38
2023-01-30T10:20:48.874Z,-0.38
2023-01-30T10:22:16.093Z,-0.40
2023-01-30T10:23:34.003Z,-0.36
2023-01-30T10:24:52.526Z,-0.35
2023-01-30T10:26:06.688Z,-0.38
2023-01-30T10:27:18.124Z,-0.38
2023-01-30T10:29:08.334Z,-0.40
2023-01-30T10:29:57.602Z,-0.40
2023-01-30T10:31:13.541Z,-0.51
2023-01-30T10:32:24.768Z,-1.24
2023-01-30T10:33:41.817Z,-0.46
2023-01-30T10:34:57.486Z,-1.30
2023-01-30T10:37:39.050Z,-0.50
2023-01-30T10:38:52.481Z,-0.53
2023-01-30T10:40:19.159Z,-0.51
2023-01-30T10:41:44.272Z,-0.48
2023-01-30T10:42:52.749Z,-0.47
2023-01-30T10:44:03.979Z,-0.43
2023-01-30T10:45:19.533Z,-0.43
2023-01-30T10:46:55.591Z,-0.38
2023-01-30T11:03:49.610Z,-0.55
2023-01-30T11:04:59.010Z,-0.50
2023-01-30T11:06:08.727Z,-0.47
2023-01-30T11:07:15.254Z,-0.41
2023-01-30T11:08:28.289Z,-0.41
2023-01-30T11:09:43.461Z,-0.41
2023-01-30T11:10:47.959Z,-0.39
2023-01-30T11:11:55.659Z,-0.35
2023-01-30T11:13:05.976Z,-0.33
2023-01-30T11:14:12.245Z,-0.30
2023-01-30T11:15:20.687Z,-0.28
2023-01-30T11:19:39.628Z,-0.21
2023-01-30T11:22:25.988Z,-0.16
2023-01-30T11:26:09.108Z,-0.11
2023-01-30T11:43:08.581Z,-0.03
2023-01-30T11:45:18.433Z,-0.02
2023-01-30T12:03:21.806Z,-0.28
2023-01-30T12:04:29.994Z,-0.30
2023-01-30T12:10:52.791Z,-0.30
2023-01-30T12:12:27.422Z,-0.24
2023-01-30T12:13:38.408Z,-0.24
2023-01-30T12:14:46.165Z,-0.17
2023-01-30T12:15:58.810Z,-0.17
2023-01-30T12:17:24.175Z,-0.17
2023-01-30T12:18:35.688Z,-0.19
2023-01-30T12:20:19.038Z,-0.17
2023-01-30T12:21:16.841Z,-0.24
2023-01-30T12:22:56.729Z,-0.23
2023-01-30T12:24:11.678Z,-0.25
2023-01-30T12:25:34.251Z,-0.26
2023-01-30T12:26:54.632Z,-0.26
2023-01-30T12:28:11.805Z,-3.75
2023-01-30T12:29:26.035Z,-0.28
2023-01-30T12:30:35.958Z,-0.32
2023-01-30T12:31:49.668Z,-0.31
2023-01-30T12:32:51.383Z,-0.31
2023-01-30T12:34:02.271Z,-0.31
2023-01-30T12:35:05.872Z,-0.29
2023-01-30T12:36:18.465Z,-0.31
2023-01-30T12:37:45.151Z,-0.25
2023-01-30T12:38:59.548Z,-0.26
2023-01-30T12:40:39.557Z,-0.30
2023-01-30T12:42:21.462Z,-0.27
2023-01-30T12:43:29.657Z,-0.26
2023-01-30T12:44:59.109Z,-0.26
2023-01-30T12:46:16.876Z,-0.24
2023-01-30T12:47:40.377Z,-0.20
2023-01-30T12:49:11.692Z,-0.20
2023-01-30T12:50:38.012Z,-0.32
2023-01-30T12:51:52.584Z,-0.31
2023-01-30T12:53:34.360Z,-0.30
2023-01-30T12:55:01.721Z,-1.06
2023-01-30T12:56:20.467Z,-1.06
2023-01-30T12:57:36.597Z,-0.29
2023-01-30T13:00:08.327Z,-0.32
2023-01-30T13:01:28.475Z,-0.29
2023-01-30T13:03:03.701Z,-0.29
2023-01-30T13:04:29.849Z,-0.25
2023-01-30T13:05:26.616Z,-0.29
2023-01-30T13:05:55.257Z,-0.23
2023-01-30T13:07:15.298Z,-0.24
2023-01-30T13:08:35.867Z,-0.23
2023-01-30T13:10:05.169Z,-0.23
2023-01-30T13:11:20.872Z,-0.28
2023-01-30T13:12:27.949Z,-0.25
2023-01-30T13:13:47.238Z,-0.28
2023-01-30T13:14:57.120Z,-0.26
2023-01-30T13:16:22.204Z,-0.27
2023-01-30T13:17:40.867Z,-0.25
2023-01-30T13:18:50.228Z,-0.28
2023-01-30T13:20:12.079Z,-0.28
2023-01-30T13:21:30.924Z,-0.31
2023-01-30T13:22:52.727Z,-0.31
2023-01-30T13:24:20.582Z,-0.30
2023-01-30T13:25:30.314Z,-0.28
2023-01-30T13:26:46.487Z,-0.28
2023-01-30T13:28:00.284Z,-0.28
2023-01-30T13:29:22.510Z,-0.28
2023-01-30T13:30:30.537Z,-0.28
2023-01-30T13:31:37.676Z,-0.26
2023-01-30T13:32:58.116Z,-0.30
2023-01-30T13:34:15.781Z,-0.30
2023-01-30T13:35:49.807Z,-0.28
2023-01-30T13:51:40.994Z,-0.53
